Time;durP1;ratioP1;P1;durP2;ratioP2;P2;SDS_P1;SDS_P2;PMS_P1;PMS_P2;Temp;Humidity;BMP_temperature;BMP_pressure;BME280_temperature;BME280_humidity;BME280_pressure;Samples;Min_cycle;Max_cycle;Signal;HPM_P1;HPM_P2
2023/08/24 00:07:11;;;;;;;12.8;8.8;;;;;;;17.27;86.32;;;;;
2023/08/24 00:18:11;;;;;;;9.8;6.9;;;;;;;17.17;85.25;;;;;
2023/08/24 00:28:11;;;;;;;9.8;6.9;;;;;;;16.96;85.25;;;;;
2023/08/24 00:39:11;;;;;;;12.2;7.2;;;;;;;16.7;86.21;;;;;
2023/08/24 00:49:11;;;;;;;12.2;7.2;;;;;;;16.62;86.35;;;;;
2023/08/24 01:00:11;;;;;;;12.2;7.2;;;;;;;16.56;86.85;;;;;
2023/08/24 01:11:12;;;;;;;10.9;7.4;;;;;;;16.55;86.85;;;;;
2023/08/24 01:22:11;;;;;;;10.9;7.4;;;;;;;16.53;86.57;;;;;
2023/08/24 01:32:11;;;;;;;10.9;7.4;;;;;;;16.55;87.04;;;;;
2023/08/24 01:43:11;;;;;;;9.3;6.8;;;;;;;16.53;86.96;;;;;
2023/08/24 01:53:11;;;;;;;9.3;6.8;;;;;;;16.45;86.43;;;;;
2023/08/24 02:03:11;;;;;;;9.3;6.8;;;;;;;16.24;86.78;;;;;
2023/08/24 02:13:11;;;;;;;8.9;6.5;;;;;;;16.19;86.59;;;;;
2023/08/24 02:24:11;;;;;;;8.9;6.5;;;;;;;16.11;87.52;;;;;
2023/08/24 02:34:13;;;;;;;8.9;6.5;;;;;;;16.07;87.29;;;;;
2023/08/24 02:45:11;;;;;;;10.1;7.9;;;;;;;15.98;87.34;;;;;
2023/08/24 02:56:12;;;;;;;10.1;7.9;;;;;;;15.73;88.49;;;;;
2023/08/24 03:07:11;;;;;;;10.1;7.9;;;;;;;15.57;88.73;;;;;
2023/08/24 03:18:11;;;;;;;9;7.4;;;;;;;15.67;89.73;;;;;
2023/08/24 03:28:11;;;;;;;9;7.4;;;;;;;15.88;89.46;;;;;
2023/08/24 03:39:11;;;;;;;15.2;11.1;;;;;;;15.94;89.51;;;;;
2023/08/24 03:49:13;;;;;;;15.2;11.1;;;;;;;15.96;90.18;;;;;
2023/08/24 04:00:14;;;;;;;15.2;11.1;;;;;;;16.06;90.54;;;;;
2023/08/24 04:10:12;;;;;;;13.4;11.6;;;;;;;15.93;89.58;;;;;
2023/08/24 04:21:12;;;;;;;13.4;11.6;;;;;;;15.95;88.98;;;;;
2023/08/24 04:31:12;;;;;;;13.4;11.6;;;;;;;16.01;88.75;;;;;
2023/08/24 04:42:12;;;;;;;12.2;9.1;;;;;;;16.16;89.25;;;;;
2023/08/24 04:52:12;;;;;;;12.2;9.1;;;;;;;16.48;89.52;;;;;
2023/08/24 05:02:13;;;;;;;12.2;9.1;;;;;;;16.87;89.5;;;;;
2023/08/24 05:13:12;;;;;;;13.3;10.7;;;;;;;17.3;89.59;;;;;
2023/08/24 05:24:12;;;;;;;13.3;10.7;;;;;;;17.76;90.2;;;;;
2023/08/24 05:34:12;;;;;;;13.3;10.7;;;;;;;18.12;89.65;;;;;
2023/08/24 05:44:12;;;;;;;21.4;15.8;;;;;;;18.39;88.55;;;;;
2023/08/24 05:55:12;;;;;;;21.4;15.8;;;;;;;18.76;87.69;;;;;
2023/08/24 06:06:12;;;;;;;21.4;15.8;;;;;;;19.18;86.36;;;;;
2023/08/24 06:16:12;;;;;;;19.6;16.7;;;;;;;19.62;84.84;;;;;
2023/08/24 06:27:12;;;;;;;19.6;16.7;;;;;;;19.7;83.36;;;;;
2023/08/24 06:37:12;;;;;;;19.6;16.7;;;;;;;19.92;82.8;;;;;
2023/08/24 06:47:12;;;;;;;23.9;18.5;;;;;;;20.23;81.4;;;;;
2023/08/24 06:58:12;;;;;;;23.9;18.5;;;;;;;20.54;80.18;;;;;
2023/08/24 07:09:12;;;;;;;25.9;19.4;;;;;;;20.8;78.19;;;;;
2023/08/24 07:19:12;;;;;;;25.9;19.4;;;;;;;21.23;76.89;;;;;
2023/08/24 07:29:12;;;;;;;25.9;19.4;;;;;;;21.45;74.59;;;;;
2023/08/24 07:40:12;;;;;;;18.3;13.9;;;;;;;21.37;73.3;;;;;
2023/08/24 07:51:12;;;;;;;18.3;13.9;;;;;;;21.98;73.54;;;;;
2023/08/24 08:01:13;;;;;;;18.3;13.9;;;;;;;22.03;70.72;;;;;
2023/08/24 08:12:12;;;;;;;19.1;14.3;;;;;;;22.36;66.79;;;;;
2023/08/24 08:23:12;;;;;;;19.1;14.3;;;;;;;22.91;65.85;;;;;
2023/08/24 08:33:12;;;;;;;19.1;14.3;;;;;;;23.1;65.89;;;;;
2023/08/24 08:43:12;;;;;;;17.9;11.8;;;;;;;23.2;66.16;;;;;
2023/08/24 08:54:12;;;;;;;17.9;11.8;;;;;;;23.39;66.63;;;;;
2023/08/24 09:04:12;;;;;;;17.9;11.8;;;;;;;23.54;64.49;;;;;
2023/08/24 09:14:12;;;;;;;14.4;10.8;;;;;;;24.01;60.66;;;;;
2023/08/24 09:25:12;;;;;;;14.4;10.8;;;;;;;24.5;63.1;;;;;
2023/08/24 09:36:12;;;;;;;14.4;10.8;;;;;;;24.5;58.89;;;;;
2023/08/24 09:46:12;;;;;;;11.9;9.2;;;;;;;24.84;57.5;;;;;
2023/08/24 09:57:12;;;;;;;11.9;9.2;;;;;;;25.16;56.3;;;;;
2023/08/24 10:07:14;;;;;;;11.9;9.2;;;;;;;25.43;53.25;;;;;
2023/08/24 10:18:12;;;;;;;10.3;5.9;;;;;;;25.51;48.26;;;;;
2023/08/24 10:29:12;;;;;;;10.3;5.9;;;;;;;25.75;42.69;;;;;
2023/08/24 10:40:12;;;;;;;7.8;3.1;;;;;;;25.88;47.78;;;;;
2023/08/24 10:50:13;;;;;;;7.8;3.1;;;;;;;25.99;45.38;;;;;
2023/08/24 11:01:12;;;;;;;7.8;3.1;;;;;;;26.2;42.76;;;;;
2023/08/24 11:12:12;;;;;;;5.4;2.4;;;;;;;26.53;43.53;;;;;
2023/08/24 11:22:12;;;;;;;5.4;2.4;;;;;;;26.71;42.74;;;;;
2023/08/24 11:33:12;;;;;;;5.4;2.4;;;;;;;26.69;45.38;;;;;
2023/08/24 11:43:12;;;;;;;5.5;3;;;;;;;26.78;43.9;;;;;
2023/08/24 11:53:12;;;;;;;5.5;3;;;;;;;27.02;43.28;;;;;
2023/08/24 12:04:12;;;;;;;5.5;3;;;;;;;27.28;43.06;;;;;
2023/08/24 12:14:12;;;;;;;5.7;3.1;;;;;;;27.16;46.26;;;;;
2023/08/24 12:24:13;;;;;;;5.7;3.1;;;;;;;27.41;42.74;;;;;
2023/08/24 12:35:12;;;;;;;5.7;3.1;;;;;;;27.63;43.44;;;;;
2023/08/24 12:45:12;;;;;;;7.6;3.6;;;;;;;27.65;43.1;;;;;
2023/08/24 12:56:13;;;;;;;7.6;3.6;;;;;;;27.46;44.72;;;;;
2023/08/24 13:07:14;;;;;;;7.6;3.6;;;;;;;27.98;43.86;;;;;
2023/08/24 13:18:12;;;;;;;9.5;3.6;;;;;;;28.03;42.43;;;;;
2023/08/24 13:29:12;;;;;;;9.5;3.6;;;;;;;28.07;43.59;;;;;
2023/08/24 13:39:12;;;;;;;5.3;3.2;;;;;;;28.29;43.75;;;;;
2023/08/24 13:49:13;;;;;;;5.3;3.2;;;;;;;28.16;45.02;;;;;
2023/08/24 14:00:12;;;;;;;5.3;3.2;;;;;;;28.31;43.94;;;;;
2023/08/24 14:11:13;;;;;;;6.2;3.6;;;;;;;28.58;44.1;;;;;
2023/08/24 14:21:13;;;;;;;6.2;3.6;;;;;;;29.31;42.49;;;;;
2023/08/24 14:31:12;;;;;;;6.2;3.6;;;;;;;29.9;43.47;;;;;
2023/08/24 14:42:12;;;;;;;6.5;3.2;;;;;;;30.56;38.98;;;;;
2023/08/24 14:53:12;;;;;;;6.5;3.2;;;;;;;31.37;39.48;;;;;
2023/08/24 15:04:12;;;;;;;6.5;3.2;;;;;;;30.53;39.17;;;;;
2023/08/24 15:15:16;;;;;;;6.2;3.6;;;;;;;29.63;40.16;;;;;
2023/08/24 15:26:12;;;;;;;6.2;3.6;;;;;;;29.07;42.38;;;;;
2023/08/24 15:37:12;;;;;;;6.2;3.6;;;;;;;28.35;43.4;;;;;
2023/08/24 15:47:12;;;;;;;6.7;3.6;;;;;;;27.61;45.01;;;;;
2023/08/24 15:58:13;;;;;;;6.7;3.6;;;;;;;29.95;43.86;;;;;
2023/08/24 16:09:12;;;;;;;6.7;3.6;;;;;;;32.39;39.49;;;;;
2023/08/24 16:19:13;;;;;;;8.5;4.6;;;;;;;32.59;38.54;;;;;
2023/08/24 16:30:12;;;;;;;8.5;4.6;;;;;;;30.17;42.67;;;;;
2023/08/24 16:41:12;;;;;;;7.9;4.4;;;;;;;28.54;45.79;;;;;
2023/08/24 16:51:12;;;;;;;7.9;4.4;;;;;;;27.21;53.25;;;;;
2023/08/24 17:01:12;;;;;;;7.9;4.4;;;;;;;26.37;54.04;;;;;
2023/08/24 17:12:12;;;;;;;15.6;12;;;;;;;25.62;55;;;;;
2023/08/24 17:22:12;;;;;;;15.6;12;;;;;;;24.75;56.35;;;;;
2023/08/24 17:33:12;;;;;;;15.6;12;;;;;;;23.86;59.92;;;;;
2023/08/24 17:43:12;;;;;;;22.7;14.6;;;;;;;23.09;62.6;;;;;
2023/08/24 17:54:12;;;;;;;22.7;14.6;;;;;;;22.22;64.64;;;;;
2023/08/24 18:05:12;;;;;;;22.7;14.6;;;;;;;21.61;67.39;;;;;
2023/08/24 18:16:12;;;;;;;10;5.8;;;;;;;21.1;67.88;;;;;
2023/08/24 18:26:12;;;;;;;10;5.8;;;;;;;20.64;68.81;;;;;
2023/08/24 18:37:14;;;;;;;10;5.8;;;;;;;20.22;69.6;;;;;
2023/08/24 18:48:12;;;;;;;11.2;6.6;;;;;;;19.91;69.97;;;;;
2023/08/24 18:58:12;;;;;;;11.2;6.6;;;;;;;19.63;71.35;;;;;
2023/08/24 19:09:12;;;;;;;11.2;6.6;;;;;;;19.38;70.93;;;;;
2023/08/24 19:19:13;;;;;;;10.8;7.1;;;;;;;19.17;71.74;;;;;
2023/08/24 19:30:13;;;;;;;10.8;7.1;;;;;;;18.92;73.18;;;;;
2023/08/24 19:41:13;;;;;;;11.8;6.6;;;;;;;18.75;72.69;;;;;
2023/08/24 19:52:13;;;;;;;11.8;6.6;;;;;;;18.58;72.94;;;;;
2023/08/24 20:03:12;;;;;;;11.8;6.6;;;;;;;18.41;73.35;;;;;
2023/08/24 20:13:13;;;;;;;11.3;6.4;;;;;;;18.29;73.59;;;;;
2023/08/24 20:24:12;;;;;;;11.3;6.4;;;;;;;18.1;74.34;;;;;
2023/08/24 20:34:13;;;;;;;11.3;6.4;;;;;;;17.93;75.92;;;;;
2023/08/24 20:45:12;;;;;;;9.9;6.1;;;;;;;17.81;76.03;;;;;
2023/08/24 20:55:13;;;;;;;9.9;6.1;;;;;;;17.65;76.58;;;;;
2023/08/24 21:06:13;;;;;;;9.9;6.1;;;;;;;17.57;79.62;;;;;
2023/08/24 21:17:13;;;;;;;12.8;7.4;;;;;;;17.44;79.25;;;;;
2023/08/24 21:28:13;;;;;;;12.8;7.4;;;;;;;17.24;79.33;;;;;
2023/08/24 21:39:13;;;;;;;12.8;7.4;;;;;;;17.08;80.11;;;;;
2023/08/24 21:49:13;;;;;;;14.4;9.3;;;;;;;16.93;82.01;;;;;
2023/08/24 22:00:13;;;;;;;14.4;9.3;;;;;;;16.85;84.26;;;;;
2023/08/24 22:11:13;;;;;;;18.2;11.2;;;;;;;16.78;85.42;;;;;
2023/08/24 22:21:13;;;;;;;18.2;11.2;;;;;;;16.72;86.1;;;;;
2023/08/24 22:32:13;;;;;;;18.2;11.2;;;;;;;16.63;86.88;;;;;
2023/08/24 22:43:13;;;;;;;12.3;10;;;;;;;16.66;86.12;;;;;
2023/08/24 22:54:16;;;;;;;12.3;10;;;;;;;16.66;85.29;;;;;
2023/08/24 23:04:13;;;;;;;12.3;10;;;;;;;16.61;84.87;;;;;
2023/08/24 23:15:13;;;;;;;14.5;9.4;;;;;;;16.5;84.31;;;;;
2023/08/24 23:25:13;;;;;;;14.5;9.4;;;;;;;16.36;85.51;;;;;
2023/08/24 23:35:13;;;;;;;14.5;9.4;;;;;;;16.29;84.96;;;;;
2023/08/24 23:46:13;;;;;;;13;9.7;;;;;;;16.23;84.97;;;;;
2023/08/24 23:56:19;;;;;;;13;9.7;;;;;;;16.1;84.99;;;;;
